Time;durP1;ratioP1;P1;durP2;ratioP2;P2;SDS_P1;SDS_P2;PMS_P1;PMS_P2;Temp;Humidity;BMP_temperature;BMP_pressure;BME280_temperature;BME280_humidity;BME280_pressure;Samples;Min_cycle;Max_cycle;Signal;HPM_P1;HPM_P2
2022/10/22 00:02:23;;;;;;;5.18;3.38;;;13.20;99.90;;;;;;5015192;28;20052;-73
2022/10/22 00:04:49;;;;;;;4.75;3.20;;;13.20;99.90;;;;;;5030871;28;20056;-72
2022/10/22 00:07:18;;;;;;;4.95;3.30;;;13.20;99.90;;;;;;5021894;28;20417;-72
2022/10/22 00:09:44;;;;;;;5.13;3.30;;;13.20;99.90;;;;;;5011285;28;20050;-72
2022/10/22 00:12:10;;;;;;;5.75;3.45;;;13.20;99.90;;;;;;5011000;28;20515;-73
2022/10/22 00:14:36;;;;;;;4.25;3.13;;;13.20;99.90;;;;;;5019351;28;20044;-73
2022/10/22 00:17:02;;;;;;;6.13;3.88;;;13.10;99.90;;;;;;5011607;28;20042;-73
2022/10/22 00:19:28;;;;;;;4.82;3.17;;;13.20;99.90;;;;;;4993535;28;20050;-73
2022/10/22 00:21:54;;;;;;;4.68;3.35;;;13.10;99.90;;;;;;5011131;28;20056;-73
2022/10/22 00:24:19;;;;;;;4.55;3.30;;;13.20;99.90;;;;;;4993326;28;20148;-73
2022/10/22 00:26:45;;;;;;;4.65;3.70;;;13.20;99.90;;;;;;5010873;28;20062;-73
2022/10/22 00:29:11;;;;;;;5.82;3.60;;;13.20;99.90;;;;;;4992739;28;20053;-73
2022/10/22 00:31:37;;;;;;;5.38;3.30;;;13.20;99.90;;;;;;5011015;28;20061;-73
2022/10/22 00:34:02;;;;;;;5.30;3.08;;;13.20;99.90;;;;;;5029363;28;20065;-73
2022/10/22 00:36:28;;;;;;;5.25;3.42;;;13.20;99.90;;;;;;5030290;28;20050;-73
2022/10/22 00:38:54;;;;;;;6.95;3.80;;;13.20;99.90;;;;;;5030781;28;20042;-73
2022/10/22 00:41:20;;;;;;;5.43;3.30;;;13.20;99.90;;;;;;5032385;28;20132;-73
2022/10/22 00:44:01;;;;;;;6.15;3.53;;;13.10;99.90;;;;;;5034334;28;20483;-73
2022/10/22 00:46:27;;;;;;;3.83;3.13;;;13.10;99.90;;;;;;5034495;28;20041;-73
2022/10/22 00:48:55;;;;;;;5.22;3.28;;;13.10;99.90;;;;;;5034610;28;20077;-74
2022/10/22 00:51:22;;;;;;;4.88;3.20;;;13.20;99.90;;;;;;5034472;28;20397;-73
2022/10/22 00:53:52;;;;;;;4.80;3.13;;;13.20;99.90;;;;;;5033995;28;20521;-73
2022/10/22 00:56:19;;;;;;;4.80;3.50;;;13.20;99.90;;;;;;5034341;28;20049;-73
2022/10/22 00:58:51;;;;;;;6.07;3.63;;;13.20;99.90;;;;;;5033905;28;20099;-73
2022/10/22 01:01:21;;;;;;;5.32;3.85;;;13.20;99.90;;;;;;5034310;28;20051;-73
2022/10/22 01:03:48;;;;;;;5.65;3.58;;;13.20;99.90;;;;;;5034336;28;20085;-74
2022/10/22 01:06:25;;;;;;;6.05;3.83;;;13.20;99.90;;;;;;5031336;28;20125;-73
2022/10/22 01:08:55;;;;;;;6.68;3.88;;;13.30;99.90;;;;;;4996776;28;20104;-73
2022/10/22 01:11:50;;;;;;;5.55;4.03;;;13.30;99.90;;;;;;5014463;28;20057;-73
2022/10/22 01:14:37;;;;;;;6.97;3.80;;;13.30;99.90;;;;;;5019729;28;20064;-73
2022/10/22 01:17:12;;;;;;;4.13;3.13;;;13.30;99.90;;;;;;5033658;28;20490;-73
2022/10/22 01:19:51;;;;;;;5.97;3.63;;;13.30;99.90;;;;;;5033989;28;20570;-74
2022/10/22 01:22:39;;;;;;;5.72;3.60;;;13.30;99.90;;;;;;5033633;28;20486;-73
2022/10/22 01:25:16;;;;;;;4.90;3.25;;;13.30;99.90;;;;;;5033829;28;20053;-74
2022/10/22 01:27:54;;;;;;;6.63;3.50;;;13.30;99.90;;;;;;5033727;28;20058;-73
2022/10/22 01:30:21;;;;;;;6.38;3.90;;;13.40;99.90;;;;;;5026417;28;20516;-73
2022/10/22 01:32:51;;;;;;;4.45;3.42;;;13.30;99.90;;;;;;4998495;28;20080;-73
2022/10/22 01:35:46;;;;;;;5.25;3.78;;;13.30;99.90;;;;;;5033758;28;20057;-74
2022/10/22 01:38:16;;;;;;;4.78;3.25;;;13.30;99.90;;;;;;5020642;28;20104;-73
2022/10/22 01:40:42;;;;;;;5.28;3.80;;;13.30;99.90;;;;;;5013906;28;20054;-73
2022/10/22 01:43:10;;;;;;;5.03;3.58;;;13.20;99.90;;;;;;5013630;28;20054;-73
2022/10/22 01:45:48;;;;;;;6.60;3.65;;;13.30;99.90;;;;;;4995947;28;20114;-73
2022/10/22 01:48:32;;;;;;;5.30;3.53;;;13.30;99.90;;;;;;5023069;28;20478;-74
2022/10/22 01:51:04;;;;;;;4.85;3.42;;;13.20;99.90;;;;;;5022320;28;20041;-73
2022/10/22 01:54:03;;;;;;;5.47;3.25;;;13.20;99.90;;;;;;5013204;28;20781;-73
2022/10/22 01:56:47;;;;;;;6.63;3.38;;;13.20;99.90;;;;;;4956774;28;20059;-73
2022/10/22 01:59:33;;;;;;;6.28;3.70;;;13.10;99.90;;;;;;4993575;28;20086;-74
2022/10/22 02:02:12;;;;;;;5.18;3.72;;;13.10;99.90;;;;;;5019930;28;20119;-73
2022/10/22 02:04:52;;;;;;;7.35;3.50;;;13.10;99.90;;;;;;5000713;28;20208;-73
2022/10/22 02:07:24;;;;;;;6.03;3.80;;;13.00;99.90;;;;;;5032926;28;20038;-74
2022/10/22 02:09:51;;;;;;;7.03;3.58;;;13.00;99.90;;;;;;5005619;28;20386;-73
2022/10/22 02:12:19;;;;;;;5.32;3.90;;;13.00;99.90;;;;;;5021738;28;20461;-73
2022/10/22 02:14:46;;;;;;;4.78;3.08;;;13.00;99.90;;;;;;5013995;28;20086;-74
2022/10/22 02:17:17;;;;;;;5.75;4.10;;;13.00;99.90;;;;;;5012882;28;20525;-74
2022/10/22 02:19:56;;;;;;;6.65;3.78;;;12.90;99.90;;;;;;5029680;28;20429;-73
2022/10/22 02:22:23;;;;;;;5.50;3.42;;;13.00;99.90;;;;;;5032916;28;20081;-73
2022/10/22 02:24:49;;;;;;;5.50;3.38;;;13.00;99.90;;;;;;5024395;28;20156;-74
2022/10/22 02:27:23;;;;;;;5.40;3.30;;;13.00;99.90;;;;;;5021222;28;20072;-73
2022/10/22 02:29:54;;;;;;;8.48;3.40;;;12.90;99.90;;;;;;5032101;28;20167;-73
2022/10/22 02:32:24;;;;;;;5.55;3.45;;;12.90;99.90;;;;;;5032438;28;20398;-73
2022/10/22 02:34:53;;;;;;;6.55;3.72;;;12.90;99.90;;;;;;5032700;28;20042;-74
2022/10/22 02:37:19;;;;;;;6.28;3.92;;;12.90;99.90;;;;;;5032192;28;20051;-74
2022/10/22 02:39:45;;;;;;;5.13;3.80;;;12.90;99.90;;;;;;5032424;28;20123;-74
2022/10/22 02:42:11;;;;;;;7.90;3.70;;;13.00;99.90;;;;;;5031204;28;20064;-74
2022/10/22 02:44:37;;;;;;;5.32;3.80;;;13.00;99.90;;;;;;5021272;28;20045;-74
2022/10/22 02:47:03;;;;;;;7.00;3.90;;;13.00;99.90;;;;;;5012229;28;20085;-74
2022/10/22 02:49:29;;;;;;;6.20;3.88;;;13.00;99.90;;;;;;5012300;28;20512;-74
2022/10/22 02:51:55;;;;;;;6.30;4.00;;;13.00;99.90;;;;;;4995063;28;20128;-74
2022/10/22 02:54:20;;;;;;;5.78;3.42;;;13.00;99.90;;;;;;4994935;28;20438;-74
2022/10/22 02:56:46;;;;;;;6.22;3.75;;;13.10;99.90;;;;;;5012319;28;20116;-74
2022/10/22 02:59:12;;;;;;;5.72;3.90;;;13.00;99.90;;;;;;5011828;28;20473;-74
2022/10/22 03:01:37;;;;;;;6.68;4.07;;;13.00;99.90;;;;;;4994716;28;20056;-74
2022/10/22 03:04:04;;;;;;;5.70;3.78;;;13.00;99.90;;;;;;4995291;28;20048;-74
2022/10/22 03:06:29;;;;;;;6.38;4.00;;;13.00;99.90;;;;;;4999680;28;20054;-74
2022/10/22 03:08:55;;;;;;;6.60;3.90;;;12.90;99.90;;;;;;5012581;28;20045;-74
2022/10/22 03:11:21;;;;;;;5.85;4.22;;;13.00;99.90;;;;;;5031929;28;20054;-74
2022/10/22 03:13:46;;;;;;;5.97;4.40;;;13.00;99.90;;;;;;5017899;28;20415;-73
2022/10/22 03:16:12;;;;;;;8.23;4.50;;;12.90;99.90;;;;;;5031645;28;20053;-74
2022/10/22 03:18:38;;;;;;;7.47;4.50;;;13.00;99.90;;;;;;5031618;28;20079;-74
2022/10/22 03:21:26;;;;;;;7.88;4.47;;;13.00;99.90;;;;;;5005815;28;20042;-74
2022/10/22 03:23:52;;;;;;;6.00;4.30;;;13.00;99.90;;;;;;4992122;28;20096;-74
2022/10/22 03:26:19;;;;;;;5.90;4.50;;;13.00;99.90;;;;;;4991268;28;20042;-74
2022/10/22 03:28:46;;;;;;;6.32;4.43;;;13.00;99.90;;;;;;4989721;28;20104;-74
2022/10/22 03:31:12;;;;;;;5.40;3.97;;;13.00;99.90;;;;;;4991287;28;20053;-74
2022/10/22 03:33:38;;;;;;;7.22;4.93;;;13.00;99.90;;;;;;4991316;28;20434;-74
2022/10/22 03:36:04;;;;;;;6.50;4.50;;;13.00;99.90;;;;;;4995555;28;20466;-74
2022/10/22 03:38:30;;;;;;;6.68;4.95;;;13.00;99.90;;;;;;5011408;28;20053;-74
2022/10/22 03:40:56;;;;;;;7.68;4.75;;;13.00;99.90;;;;;;4993951;28;20443;-74
2022/10/22 03:43:22;;;;;;;9.07;4.70;;;13.00;99.90;;;;;;5011600;28;20056;-73
2022/10/22 03:45:48;;;;;;;8.73;4.50;;;13.00;99.90;;;;;;5011523;28;20053;-74
2022/10/22 03:48:13;;;;;;;6.40;4.43;;;13.00;99.90;;;;;;4994294;28;20046;-74
2022/10/22 03:50:39;;;;;;;7.60;4.75;;;13.00;99.90;;;;;;5011654;28;20383;-74
2022/10/22 03:53:06;;;;;;;7.10;4.10;;;13.00;99.90;;;;;;5010383;28;20100;-74
2022/10/22 03:55:31;;;;;;;7.82;4.63;;;12.90;99.90;;;;;;5011250;28;20406;-75
2022/10/22 03:57:57;;;;;;;7.40;4.25;;;12.90;99.90;;;;;;5011187;28;20054;-75
2022/10/22 04:00:23;;;;;;;5.88;4.72;;;12.80;99.90;;;;;;5011118;28;20046;-74
2022/10/22 04:02:48;;;;;;;6.22;4.40;;;12.80;99.90;;;;;;5011354;28;20145;-75
2022/10/22 04:05:14;;;;;;;8.02;5.15;;;12.80;99.90;;;;;;5011517;28;20096;-75
2022/10/22 04:07:40;;;;;;;6.70;4.80;;;12.90;99.90;;;;;;5011434;28;20408;-74
2022/10/22 04:10:06;;;;;;;6.10;4.78;;;12.90;99.90;;;;;;5011419;28;20050;-75
2022/10/22 04:12:31;;;;;;;10.20;5.03;;;12.90;99.90;;;;;;5018643;28;20049;-74
2022/10/22 04:14:57;;;;;;;7.70;4.80;;;12.90;99.90;;;;;;5020544;28;20045;-74
2022/10/22 04:17:23;;;;;;;7.53;4.60;;;12.90;99.90;;;;;;5015025;28;20136;-74
2022/10/22 04:19:48;;;;;;;7.78;4.95;;;12.90;99.90;;;;;;4997713;28;20050;-75
2022/10/22 04:22:14;;;;;;;4.82;3.92;;;12.90;99.90;;;;;;5014745;28;20042;-74
2022/10/22 04:24:39;;;;;;;7.75;4.72;;;12.80;99.90;;;;;;5014606;28;20046;-74
2022/10/22 04:27:05;;;;;;;6.93;4.00;;;12.80;99.90;;;;;;5014579;28;20053;-74
2022/10/22 04:29:31;;;;;;;7.03;4.68;;;12.80;99.90;;;;;;5014609;28;20061;-74
2022/10/22 04:31:56;;;;;;;7.13;4.68;;;12.80;99.90;;;;;;5015021;28;20441;-74
2022/10/22 04:34:25;;;;;;;9.23;4.25;;;12.80;99.90;;;;;;5014653;28;20398;-74
2022/10/22 04:36:50;;;;;;;8.32;4.85;;;12.80;99.90;;;;;;5014788;28;20050;-74
2022/10/22 04:39:16;;;;;;;6.65;4.80;;;12.80;99.90;;;;;;5014773;28;20133;-74
2022/10/22 04:41:42;;;;;;;7.53;5.18;;;12.80;99.90;;;;;;5014603;28;20084;-74
2022/10/22 04:44:08;;;;;;;7.45;4.57;;;12.80;99.90;;;;;;5014775;28;20093;-73
2022/10/22 04:46:34;;;;;;;9.10;4.95;;;12.80;99.90;;;;;;5014867;28;20053;-74
2022/10/22 04:49:02;;;;;;;7.90;4.82;;;12.70;99.90;;;;;;5014631;28;20053;-74
2022/10/22 04:51:28;;;;;;;8.02;4.65;;;12.70;99.90;;;;;;5014454;28;20108;-73
2022/10/22 04:53:53;;;;;;;6.95;4.45;;;12.70;99.90;;;;;;5014493;28;20430;-73
2022/10/22 04:56:21;;;;;;;6.07;4.43;;;12.70;99.90;;;;;;5014433;28;20046;-73
2022/10/22 04:58:49;;;;;;;10.27;5.15;;;12.60;99.90;;;;;;5014032;28;20057;-73
2022/10/22 05:01:23;;;;;;;6.80;4.70;;;12.60;99.90;;;;;;5014389;28;20410;-73
2022/10/22 05:03:50;;;;;;;7.15;4.97;;;12.60;99.90;;;;;;5014465;28;20046;-73
2022/10/22 05:06:16;;;;;;;7.10;4.75;;;12.50;99.90;;;;;;5014409;28;20157;-74
2022/10/22 05:08:42;;;;;;;7.13;5.03;;;12.50;99.90;;;;;;4996864;28;20058;-73
2022/10/22 05:11:16;;;;;;;8.95;5.28;;;12.40;99.90;;;;;;5014314;28;20045;-73
2022/10/22 05:13:42;;;;;;;9.00;5.05;;;12.50;99.90;;;;;;5015124;28;20197;-73
2022/10/22 05:16:08;;;;;;;7.05;4.80;;;12.40;99.90;;;;;;5033895;28;20142;-73
2022/10/22 05:18:38;;;;;;;9.23;5.75;;;12.40;99.90;;;;;;5033832;28;20120;-73
2022/10/22 05:21:08;;;;;;;8.50;4.75;;;12.40;99.90;;;;;;5033584;28;20049;-74
2022/10/22 05:23:33;;;;;;;8.13;4.97;;;12.40;99.90;;;;;;5033752;28;20049;-74
2022/10/22 05:26:03;;;;;;;7.40;4.63;;;12.40;99.90;;;;;;5033566;28;20061;-74
2022/10/22 05:28:30;;;;;;;8.38;5.15;;;12.40;99.90;;;;;;5032957;28;20053;-73
2022/10/22 05:30:57;;;;;;;8.20;5.07;;;12.40;99.90;;;;;;5015955;28;20108;-73
2022/10/22 05:33:23;;;;;;;7.43;4.90;;;12.40;99.90;;;;;;5033489;28;20551;-73
2022/10/22 05:35:49;;;;;;;8.10;5.50;;;12.30;99.90;;;;;;5033421;28;20088;-74
2022/10/22 05:38:15;;;;;;;7.80;5.43;;;12.30;99.90;;;;;;5016053;28;20068;-74
2022/10/22 05:40:41;;;;;;;7.47;5.10;;;12.40;99.90;;;;;;5033543;28;20072;-74
2022/10/22 05:43:06;;;;;;;9.50;5.63;;;12.40;99.90;;;;;;5033028;28;20054;-74
2022/10/22 05:45:36;;;;;;;8.50;5.60;;;12.40;99.90;;;;;;5031552;28;20053;-73
2022/10/22 05:48:02;;;;;;;7.22;5.30;;;12.40;99.90;;;;;;5033697;28;20049;-74
2022/10/22 05:50:28;;;;;;;9.23;5.45;;;12.50;99.90;;;;;;5033426;28;20049;-74
2022/10/22 05:52:53;;;;;;;9.75;5.53;;;12.50;99.90;;;;;;5033252;28;20045;-74
2022/10/22 05:55:19;;;;;;;9.43;6.32;;;12.50;99.90;;;;;;5015542;28;20445;-74
2022/10/22 05:57:45;;;;;;;9.40;5.38;;;12.50;99.90;;;;;;5032985;28;20042;-74
2022/10/22 06:00:11;;;;;;;8.82;5.43;;;12.50;99.90;;;;;;5032716;28;20405;-74
2022/10/22 06:02:37;;;;;;;10.13;5.68;;;12.50;99.90;;;;;;5033414;28;20056;-74
2022/10/22 06:05:03;;;;;;;7.90;5.90;;;12.50;99.90;;;;;;5033233;28;20057;-74
2022/10/22 06:07:29;;;;;;;8.45;5.30;;;12.50;99.90;;;;;;5015172;28;20052;-74
2022/10/22 06:09:55;;;;;;;9.13;5.45;;;12.50;99.90;;;;;;5031634;28;20501;-74
2022/10/22 06:12:20;;;;;;;8.98;4.88;;;12.50;99.90;;;;;;5027424;28;20053;-74
2022/10/22 06:14:46;;;;;;;8.43;4.88;;;12.50;99.90;;;;;;5022292;28;20103;-74
2022/10/22 06:17:12;;;;;;;8.32;5.25;;;12.50;99.90;;;;;;5032686;28;20136;-74
2022/10/22 06:19:38;;;;;;;10.93;5.38;;;12.50;99.90;;;;;;5014940;28;20139;-74
2022/10/22 06:22:04;;;;;;;8.05;5.15;;;12.60;99.90;;;;;;5032765;28;20147;-74
2022/10/22 06:24:29;;;;;;;8.23;4.80;;;12.60;99.90;;;;;;5032605;28;20505;-74
2022/10/22 06:26:55;;;;;;;7.72;5.35;;;12.60;99.90;;;;;;5032565;28;20487;-74
2022/10/22 06:29:21;;;;;;;7.60;4.72;;;12.60;99.90;;;;;;5032286;28;20060;-74
2022/10/22 06:31:47;;;;;;;8.60;5.43;;;12.70;99.90;;;;;;5032551;28;20042;-74
2022/10/22 06:34:14;;;;;;;9.23;5.10;;;12.70;99.90;;;;;;5032242;28;20049;-74
2022/10/22 06:36:41;;;;;;;8.15;4.40;;;12.70;99.90;;;;;;5032490;28;20149;-74
2022/10/22 06:39:10;;;;;;;7.70;5.10;;;12.70;99.90;;;;;;5031360;28;20053;-74
2022/10/22 06:41:36;;;;;;;8.45;5.20;;;12.70;99.90;;;;;;5014764;28;20098;-74
2022/10/22 06:44:01;;;;;;;7.47;4.55;;;12.80;99.90;;;;;;5032364;28;20053;-73
2022/10/22 06:46:27;;;;;;;7.72;4.63;;;12.80;99.90;;;;;;5025140;28;20033;-74
2022/10/22 06:48:59;;;;;;;6.68;4.53;;;12.80;99.90;;;;;;5016619;28;20054;-74
2022/10/22 06:51:26;;;;;;;8.82;4.68;;;12.80;99.90;;;;;;5031222;28;20049;-74
2022/10/22 06:53:53;;;;;;;9.45;5.13;;;12.90;99.90;;;;;;5028056;28;20045;-73
2022/10/22 06:56:20;;;;;;;8.98;4.72;;;12.90;99.90;;;;;;4994783;28;20100;-73
2022/10/22 06:58:47;;;;;;;7.85;4.55;;;12.90;99.90;;;;;;5012335;28;20060;-74
2022/10/22 07:01:15;;;;;;;7.45;4.50;;;13.00;99.90;;;;;;5012020;28;20052;-72
2022/10/22 07:03:41;;;;;;;8.48;4.80;;;13.00;99.90;;;;;;5026302;28;20453;-72
2022/10/22 07:06:10;;;;;;;7.00;4.68;;;13.10;99.90;;;;;;5031445;28;20045;-73
2022/10/22 07:08:37;;;;;;;8.80;4.63;;;13.10;99.90;;;;;;5014065;28;20409;-73
2022/10/22 07:11:11;;;;;;;9.68;4.43;;;13.10;99.90;;;;;;5014308;28;20513;-65
2022/10/22 07:13:37;;;;;;;7.43;4.50;;;13.20;99.90;;;;;;5024955;28;20046;-65
2022/10/22 07:16:04;;;;;;;8.52;4.13;;;13.20;99.90;;;;;;5031725;28;20045;-65
2022/10/22 07:18:30;;;;;;;8.52;4.85;;;13.30;99.90;;;;;;5031809;28;20132;-65
2022/10/22 07:20:56;;;;;;;7.75;3.97;;;13.40;99.90;;;;;;5015380;28;20104;-65
2022/10/22 07:23:22;;;;;;;6.50;3.90;;;13.50;99.90;;;;;;5011875;28;20045;-65
2022/10/22 07:25:48;;;;;;;8.52;4.65;;;13.50;99.90;;;;;;5011300;28;20376;-65
2022/10/22 07:28:13;;;;;;;6.72;4.32;;;13.60;99.90;;;;;;5011806;28;20065;-65
2022/10/22 07:30:39;;;;;;;7.65;4.50;;;13.60;99.90;;;;;;5011192;28;20478;-65
2022/10/22 07:33:05;;;;;;;6.05;4.28;;;13.70;99.90;;;;;;5011645;28;20050;-65
2022/10/22 07:35:31;;;;;;;7.88;4.13;;;13.80;99.90;;;;;;4994107;28;20103;-65
2022/10/22 07:37:57;;;;;;;7.90;4.40;;;13.90;99.90;;;;;;5011538;28;20041;-65
2022/10/22 07:40:22;;;;;;;4.95;3.47;;;13.90;99.90;;;;;;5011634;28;20537;-65
2022/10/22 07:42:48;;;;;;;6.95;4.28;;;14.00;99.90;;;;;;5011648;28;20538;-65
2022/10/22 07:45:14;;;;;;;6.97;5.10;;;14.00;99.90;;;;;;5011440;28;20058;-65
2022/10/22 07:47:39;;;;;;;6.22;3.85;;;14.10;99.90;;;;;;5004084;28;20518;-65
2022/10/22 07:50:06;;;;;;;7.05;4.38;;;14.20;99.90;;;;;;4993172;28;20065;-65
2022/10/22 07:52:32;;;;;;;7.00;4.47;;;14.30;99.90;;;;;;5007796;28;20088;-66
2022/10/22 07:54:58;;;;;;;7.13;4.05;;;14.30;99.90;;;;;;5017176;28;20177;-67
2022/10/22 07:57:24;;;;;;;7.18;4.03;;;14.30;99.90;;;;;;5011204;28;20418;-66
2022/10/22 07:59:50;;;;;;;9.90;4.10;;;14.40;99.90;;;;;;5010556;28;20052;-67
2022/10/22 08:02:15;;;;;;;6.00;3.83;;;14.40;99.90;;;;;;5010685;28;20045;-66
2022/10/22 08:04:41;;;;;;;6.22;3.90;;;14.50;99.90;;;;;;5010367;28;20046;-66
2022/10/22 08:07:07;;;;;;;7.75;4.20;;;14.50;99.90;;;;;;4993747;28;20061;-66
2022/10/22 08:09:32;;;;;;;6.10;4.40;;;14.60;99.90;;;;;;5010298;28;20495;-66
2022/10/22 08:11:58;;;;;;;7.85;3.85;;;14.60;99.90;;;;;;5011023;28;20050;-66
2022/10/22 08:14:24;;;;;;;5.53;3.80;;;14.60;99.90;;;;;;5010620;28;20042;-65
2022/10/22 08:16:49;;;;;;;7.55;3.67;;;14.60;99.90;;;;;;4992689;28;20061;-68
2022/10/22 08:19:19;;;;;;;6.03;3.50;;;14.50;99.90;;;;;;5010637;28;20042;-65
2022/10/22 08:21:46;;;;;;;6.40;3.55;;;14.50;99.90;;;;;;5009391;28;20045;-65
2022/10/22 08:24:13;;;;;;;8.07;3.67;;;14.50;99.90;;;;;;5009690;28;20049;-65
2022/10/22 08:26:39;;;;;;;7.18;3.50;;;14.50;99.90;;;;;;5010109;28;20054;-65
2022/10/22 08:29:05;;;;;;;5.90;3.65;;;14.50;99.90;;;;;;5008372;28;20527;-65
2022/10/22 08:31:30;;;;;;;6.85;3.60;;;14.60;99.90;;;;;;5010179;28;20052;-66
2022/10/22 08:33:56;;;;;;;7.88;3.90;;;14.50;99.90;;;;;;5008897;28;20536;-65
2022/10/22 08:36:21;;;;;;;6.50;3.45;;;14.50;99.90;;;;;;5010049;28;20061;-65
2022/10/22 08:38:47;;;;;;;6.80;3.60;;;14.50;99.90;;;;;;4992196;28;20482;-65
2022/10/22 08:41:23;;;;;;;5.75;3.45;;;14.50;99.90;;;;;;5009385;28;20054;-65
2022/10/22 08:44:04;;;;;;;;;;;14.50;99.90;;;;;;5011301;28;20064;-65
2022/10/22 08:46:58;;;;;;;7.88;3.65;;;14.50;99.90;;;;;;5004210;28;19945;-68
2022/10/22 08:49:27;;;;;;;6.32;3.58;;;15.00;99.90;;;;;;5016039;28;20049;-69
2022/10/22 08:51:53;;;;;;;5.43;3.25;;;14.50;99.90;;;;;;5029674;28;20144;-66
2022/10/22 08:54:31;;;;;;;7.95;3.63;;;14.50;99.90;;;;;;5010384;28;20463;-66
2022/10/22 08:57:27;;;;;;;5.95;3.40;;;14.70;99.90;;;;;;5010285;28;20137;-66
2022/10/22 09:00:05;;;;;;;6.50;3.60;;;14.80;99.90;;;;;;5010055;28;20431;-66
2022/10/22 09:02:42;;;;;;;8.23;3.55;;;14.90;99.90;;;;;;5012085;28;20045;-66
2022/10/22 09:05:29;;;;;;;6.68;4.00;;;15.00;99.90;;;;;;5014014;28;20061;-66
2022/10/22 09:07:56;;;;;;;6.40;3.47;;;15.10;99.90;;;;;;5013929;28;20132;-66
2022/10/22 09:10:28;;;;;;;6.20;3.47;;;15.20;99.90;;;;;;5013911;28;20521;-67
2022/10/22 09:12:53;;;;;;;6.85;3.45;;;15.20;99.90;;;;;;5013861;28;20045;-68
2022/10/22 09:15:19;;;;;;;5.97;3.42;;;15.30;99.90;;;;;;5028082;28;20099;-67
2022/10/22 09:18:03;;;;;;;7.25;3.60;;;15.40;99.90;;;;;;5031639;28;20057;-66
2022/10/22 09:20:46;;;;;;;7.13;3.20;;;15.40;99.90;;;;;;5033664;28;20257;-65
2022/10/22 09:23:31;;;;;;;9.73;3.63;;;15.50;99.90;;;;;;5015947;28;20371;-65
2022/10/22 09:25:58;;;;;;;6.32;3.42;;;15.50;99.90;;;;;;5033386;28;20065;-65
2022/10/22 09:28:24;;;;;;;6.68;3.42;;;15.50;99.90;;;;;;5032654;28;20422;-66
2022/10/22 09:30:50;;;;;;;4.05;2.83;;;15.50;99.90;;;;;;5032613;28;20053;-66
2022/10/22 09:33:23;;;;;;;5.03;2.90;;;15.60;99.90;;;;;;5033270;28;20079;-66
2022/10/22 09:36:06;;;;;;;7.00;3.00;;;15.60;99.90;;;;;;4999196;28;20053;-66
2022/10/22 09:38:38;;;;;;;5.00;2.85;;;15.50;99.90;;;;;;4995295;28;20045;-66
2022/10/22 09:41:04;;;;;;;7.07;3.10;;;15.60;99.90;;;;;;5013183;28;20054;-66
2022/10/22 09:43:30;;;;;;;6.03;3.15;;;15.70;99.90;;;;;;5013347;28;20402;-67
2022/10/22 09:46:06;;;;;;;5.90;2.80;;;15.80;99.90;;;;;;5012545;28;20080;-65
2022/10/22 09:48:38;;;;;;;6.20;3.27;;;15.90;99.90;;;;;;5010573;28;20645;-65
2022/10/22 09:51:13;;;;;;;5.75;2.70;;;15.90;99.90;;;;;;5009720;28;20053;-65
2022/10/22 09:53:43;;;;;;;4.93;2.90;;;15.80;99.90;;;;;;5014856;28;20085;-66
2022/10/22 09:56:22;;;;;;;5.65;2.90;;;15.70;99.90;;;;;;5013226;28;20060;-66
2022/10/22 09:58:50;;;;;;;5.05;2.60;;;15.70;99.90;;;;;;5012287;28;20513;-65
2022/10/22 10:01:26;;;;;;;5.32;2.80;;;15.60;99.90;;;;;;5012883;28;20137;-66
2022/10/22 10:03:52;;;;;;;6.75;2.78;;;15.70;99.90;;;;;;5012596;28;20547;-66
2022/10/22 10:06:21;;;;;;;6.95;2.60;;;15.60;99.90;;;;;;4995209;28;20069;-65
2022/10/22 10:08:48;;;;;;;4.70;2.45;;;15.60;99.90;;;;;;4994602;28;20130;-66
2022/10/22 10:11:27;;;;;;;6.25;2.70;;;15.60;99.90;;;;;;5012662;28;20068;-66
2022/10/22 10:14:05;;;;;;;6.60;3.08;;;15.60;99.90;;;;;;5014978;28;20507;-66
2022/10/22 10:16:59;;;;;;;9.50;2.80;;;15.50;99.90;;;;;;5032208;28;20042;-67
2022/10/22 10:19:34;;;;;;;6.82;2.83;;;15.50;99.90;;;;;;5014497;28;20410;-66
2022/10/22 10:22:20;;;;;;;7.88;2.80;;;15.50;99.90;;;;;;5032275;28;20046;-66
2022/10/22 10:25:11;;;;;;;5.90;2.92;;;15.50;99.90;;;;;;5015022;28;20367;-67
2022/10/22 10:27:49;;;;;;;5.32;2.40;;;15.50;99.90;;;;;;5032126;28;20160;-67
2022/10/22 10:30:19;;;;;;;3.58;2.35;;;15.40;99.90;;;;;;5031296;28;20053;-66
2022/10/22 10:33:04;;;;;;;4.97;2.20;;;15.40;99.90;;;;;;5031712;28;20049;-65
2022/10/22 10:35:37;;;;;;;6.10;2.78;;;15.40;99.90;;;;;;5032019;28;20179;-65
2022/10/22 10:38:24;;;;;;;5.88;2.95;;;15.40;99.90;;;;;;5031123;28;20572;-65
2022/10/22 10:41:17;;;;;;;7.05;2.97;;;15.40;99.90;;;;;;5029437;28;20402;-66
2022/10/22 10:44:19;;;;;;;7.00;3.20;;;15.40;99.90;;;;;;5012128;28;20096;-66
2022/10/22 10:47:02;;;;;;;5.07;2.70;;;15.40;99.90;;;;;;5010565;28;20057;-66
2022/10/22 10:49:34;;;;;;;5.47;2.60;;;15.40;99.90;;;;;;5011829;28;20453;-67
2022/10/22 10:52:35;;;;;;;6.25;3.13;;;15.50;99.90;;;;;;5009954;28;20046;-67
2022/10/22 10:55:27;;;;;;;6.13;2.75;;;15.50;99.90;;;;;;5010370;28;20434;-67
2022/10/22 10:58:02;;;;;;;4.32;2.95;;;15.50;99.90;;;;;;5010197;28;20085;-66
2022/10/22 11:00:35;;;;;;;5.35;2.75;;;15.60;99.90;;;;;;5009858;28;20494;-65
2022/10/22 11:03:29;;;;;;;4.45;3.05;;;15.60;99.90;;;;;;5010025;28;20155;-65
2022/10/22 11:06:07;;;;;;;8.18;3.35;;;15.70;99.90;;;;;;5009882;28;20136;-65
2022/10/22 11:08:47;;;;;;;6.10;2.75;;;15.70;99.90;;;;;;5009685;28;20550;-65
2022/10/22 11:11:22;;;;;;;5.68;3.10;;;15.80;99.90;;;;;;5010651;28;20050;-65
2022/10/22 11:13:50;;;;;;;6.55;3.30;;;15.80;99.90;;;;;;5010247;28;20077;-65
2022/10/22 11:16:25;;;;;;;6.85;3.30;;;15.90;99.90;;;;;;5010731;28;20057;-68
2022/10/22 11:19:14;;;;;;;4.93;3.05;;;15.90;99.90;;;;;;4992102;28;20546;-66
2022/10/22 11:21:49;;;;;;;6.20;3.08;;;15.90;99.90;;;;;;5009283;28;20589;-65
2022/10/22 11:24:49;;;;;;;7.07;3.50;;;15.80;99.90;;;;;;5010458;28;20103;-66
2022/10/22 11:27:30;;;;;;;8.60;3.63;;;15.80;99.90;;;;;;4991121;28;20058;-65
2022/10/22 11:30:11;;;;;;;7.03;3.70;;;15.80;99.90;;;;;;4990910;28;20050;-66
2022/10/22 11:32:40;;;;;;;6.80;3.88;;;15.70;99.90;;;;;;5002107;28;20089;-66
2022/10/22 11:35:11;;;;;;;5.65;3.40;;;15.70;99.90;;;;;;4993568;28;20050;-67
2022/10/22 11:37:37;;;;;;;5.22;3.60;;;15.70;99.90;;;;;;5008726;28;20043;-67
2022/10/22 11:40:18;;;;;;;5.85;3.40;;;15.60;99.90;;;;;;5009991;28;20053;-67
2022/10/22 11:42:53;;;;;;;6.20;3.25;;;15.70;99.90;;;;;;5009961;28;20522;-66
2022/10/22 11:45:22;;;;;;;5.82;3.75;;;15.70;99.90;;;;;;5010210;28;20109;-66
2022/10/22 11:47:56;;;;;;;7.57;3.70;;;15.70;99.90;;;;;;5010650;28;20054;-67
2022/10/22 11:50:42;;;;;;;5.50;3.90;;;15.60;99.90;;;;;;5010454;28;20121;-67
2022/10/22 11:53:13;;;;;;;5.47;3.40;;;15.50;99.90;;;;;;5010207;28;20064;-68
2022/10/22 11:55:45;;;;;;;8.48;4.38;;;15.50;99.90;;;;;;5012132;28;20437;-68
2022/10/22 11:58:45;;;;;;;8.25;4.72;;;15.50;99.90;;;;;;5022588;28;20041;-68
2022/10/22 12:01:10;;;;;;;6.63;4.78;;;15.50;99.90;;;;;;5009652;28;20050;-68
2022/10/22 12:03:57;;;;;;;7.82;4.80;;;15.40;99.90;;;;;;5009494;28;20112;-68
2022/10/22 12:06:27;;;;;;;7.75;4.85;;;15.40;99.90;;;;;;5009988;28;20505;-67
2022/10/22 12:08:53;;;;;;;7.43;4.82;;;15.40;99.90;;;;;;5010272;28;20049;-68
2022/10/22 12:11:34;;;;;;;5.80;4.25;;;15.50;99.90;;;;;;5009894;28;20050;-68
2022/10/22 12:14:28;;;;;;;6.43;4.70;;;15.50;99.90;;;;;;5008732;28;20077;-67
2022/10/22 12:17:06;;;;;;;6.20;4.28;;;15.50;99.90;;;;;;5008705;28;20125;-67
2022/10/22 12:19:37;;;;;;;7.35;4.00;;;15.50;99.90;;;;;;5008520;28;20050;-66
2022/10/22 12:22:08;;;;;;;9.10;4.18;;;15.50;99.90;;;;;;5009273;28;20081;-66
2022/10/22 12:24:39;;;;;;;6.60;4.32;;;15.60;99.90;;;;;;5009023;28;20050;-66
2022/10/22 12:27:20;;;;;;;5.50;3.75;;;15.80;99.90;;;;;;5009257;28;20403;-65
2022/10/22 12:29:46;;;;;;;6.88;3.92;;;15.80;99.90;;;;;;5008543;28;20058;-66
2022/10/22 12:32:14;;;;;;;6.50;4.07;;;15.90;99.90;;;;;;4991410;28;20050;-66
2022/10/22 12:34:47;;;;;;;5.72;3.50;;;16.00;99.90;;;;;;5008800;28;20441;-67
2022/10/22 12:37:15;;;;;;;5.20;3.40;;;16.10;99.90;;;;;;5008979;28;20034;-66
2022/10/22 12:39:40;;;;;;;6.80;3.70;;;16.20;99.90;;;;;;5012795;28;20052;-66
2022/10/22 12:42:12;;;;;;;6.97;3.20;;;16.20;99.90;;;;;;5012751;28;20057;-66
2022/10/22 12:44:37;;;;;;;6.65;3.30;;;16.20;99.90;;;;;;5012548;28;20100;-66
2022/10/22 12:47:05;;;;;;;5.70;3.00;;;16.20;99.90;;;;;;4995020;28;20085;-65
2022/10/22 12:49:37;;;;;;;5.95;3.15;;;16.20;99.90;;;;;;5012449;28;20050;-65
2022/10/22 12:52:05;;;;;;;8.27;3.40;;;16.20;99.90;;;;;;5012423;28;20056;-66
2022/10/22 12:54:33;;;;;;;5.40;2.90;;;16.20;99.90;;;;;;5023874;28;20041;-65
2022/10/22 12:56:59;;;;;;;6.68;3.03;;;16.30;99.90;;;;;;5032254;28;20474;-65
2022/10/22 12:59:37;;;;;;;5.05;2.75;;;16.30;99.90;;;;;;5031662;28;20139;-70
2022/10/22 13:02:23;;;;;;;4.68;3.20;;;16.30;99.90;;;;;;5031899;28;20092;-67
2022/10/22 13:05:15;;;;;;;3.55;2.60;;;16.30;99.90;;;;;;5031906;28;20080;-67
2022/10/22 13:07:50;;;;;;;5.22;2.60;;;16.20;99.90;;;;;;4997753;28;20060;-65